Time;durP1;ratioP1;P1;durP2;ratioP2;P2;SDS_P1;SDS_P2;PMS_P1;PMS_P2;Temp;Humidity;BMP_temperature;BMP_pressure;BME280_temperature;BME280_humidity;BME280_pressure;Samples;Min_cycle;Max_cycle;Signal;HPM_P1;HPM_P2
2023/05/29 00:00:59;;;;;;;;;;;12.80;99.90;;;-148.53;100.00;63986.66;5046085;28;20388;-77
2023/05/29 00:03:25;;;;;;;;;;;12.70;99.90;;;-148.53;100.00;63986.66;5056200;28;19998;-76
2023/05/29 00:05:52;;;;;;;;;;;12.60;99.90;;;-148.53;100.00;63986.66;5058872;28;19921;-76
2023/05/29 00:08:18;;;;;;;;;;;12.60;99.90;;;-148.53;100.00;63986.66;5056142;28;19939;-76
2023/05/29 00:10:43;;;;;;;;;;;12.50;99.90;;;-148.53;100.00;63986.66;5054921;28;19917;-76
2023/05/29 00:13:09;;;;;;;;;;;12.40;99.90;;;-148.53;100.00;63986.66;5068262;28;20326;-76
2023/05/29 00:15:35;;;;;;;;;;;12.40;99.90;;;-148.53;100.00;63986.66;5060993;28;20337;-76
2023/05/29 00:18:01;;;;;;;;;;;12.40;99.90;;;-148.53;100.00;63986.66;5055027;28;19943;-76
2023/05/29 00:20:26;;;;;;;;;;;12.40;99.90;;;-148.53;100.00;63986.66;5055638;28;19917;-76
2023/05/29 00:22:53;;;;;;;;;;;12.30;99.90;;;-148.53;100.00;63986.66;5059282;28;19947;-76
2023/05/29 00:25:19;;;;;;;;;;;12.30;99.90;;;-148.53;100.00;63986.66;5065677;28;20340;-77
2023/05/29 00:27:44;;;;;;;;;;;12.30;99.90;;;-148.53;100.00;63986.66;5056811;28;20283;-76
2023/05/29 00:30:10;;;;;;;;;;;12.20;99.90;;;-148.53;100.00;63986.66;5064740;28;19921;-76
2023/05/29 00:32:36;;;;;;;;;;;12.10;99.90;;;-148.53;100.00;63986.66;5070800;28;19943;-76
2023/05/29 00:35:02;;;;;;;;;;;12.10;99.90;;;-148.53;100.00;63986.66;5069429;28;19927;-76
2023/05/29 00:37:28;;;;;;;;;;;12.00;99.90;;;-148.53;100.00;63986.66;5071729;28;19938;-77
2023/05/29 00:39:55;;;;;;;;;;;12.00;99.90;;;-148.53;100.00;63986.66;5096612;28;19967;-77
2023/05/29 00:42:21;;;;;;;;;;;11.90;99.90;;;-148.53;100.00;63986.66;5064296;28;19963;-76
2023/05/29 00:44:47;;;;;;;;;;;11.80;99.90;;;-148.53;100.00;63986.66;5066616;28;20255;-76
2023/05/29 00:47:12;;;;;;;;;;;11.70;99.90;;;-148.53;100.00;63986.66;5070509;28;19916;-76
2023/05/29 00:49:38;;;;;;;;;;;11.70;99.90;;;-148.53;100.00;63986.66;5061021;28;20313;-76
2023/05/29 00:52:06;;;;;;;;;;;11.70;99.90;;;-148.53;100.00;63986.66;5060437;28;19917;-77
2023/05/29 00:54:33;;;;;;;;;;;11.70;99.90;;;-148.53;100.00;63986.66;5054603;28;19920;-77
2023/05/29 00:56:59;;;;;;;;;;;11.70;99.90;;;-148.53;100.00;63986.66;5074367;28;20360;-77
2023/05/29 00:59:33;;;;;;;;;;;11.60;99.90;;;-148.53;100.00;63986.66;5058627;28;20011;-76
2023/05/29 01:02:02;;;;;;;;;;;11.60;99.90;;;-148.53;100.00;63986.66;5060731;28;20273;-77
2023/05/29 01:04:27;;;;;;;;;;;11.50;99.90;;;-148.53;100.00;63986.66;5061490;28;20256;-77
2023/05/29 01:06:53;;;;;;;;;;;11.50;99.90;;;-148.53;100.00;63986.66;5067029;28;19927;-77
2023/05/29 01:09:19;;;;;;;;;;;;;;;-148.53;100.00;63986.66;5065977;28;19916;-77
2023/05/29 01:11:55;;;;;;;;;;;11.30;99.90;;;-148.53;100.00;63986.66;5065024;28;20011;-77
2023/05/29 01:14:33;;;;;;;;;;;11.30;99.90;;;-148.53;100.00;63986.66;5061072;28;19916;-77
2023/05/29 01:17:20;;;;;;;;;;;11.20;99.90;;;-148.53;100.00;63986.66;5100338;28;19967;-78
2023/05/29 01:20:13;;;;;;;;;;;11.20;99.90;;;-148.53;100.00;63986.66;5067206;28;19921;-76
2023/05/29 01:23:09;;;;;;;;;;;11.10;99.90;;;-148.53;100.00;63986.66;5076381;28;19951;-77
2023/05/29 01:25:49;;;;;;;;;;;11.10;99.90;;;-148.53;100.00;63986.66;5070238;28;19916;-77
2023/05/29 01:28:19;;;;;;;;;;;11.00;99.90;;;-148.53;100.00;63986.66;5069751;28;19928;-78
2023/05/29 01:30:46;;;;;;;;;;;10.90;99.90;;;-148.53;100.00;63986.66;5097234;28;19923;-77
2023/05/29 01:33:12;;;;;;;;;;;10.90;99.90;;;-148.53;100.00;63986.66;5067810;28;19920;-76
2023/05/29 01:35:37;;;;;;;;;;;10.80;99.90;;;-148.53;100.00;63986.66;5064151;28;19912;-77
2023/05/29 01:38:03;;;;;;;;;;;10.80;99.90;;;-148.53;100.00;63986.66;5050879;28;19951;-77
2023/05/29 01:40:29;;;;;;;;;;;10.80;99.90;;;-148.53;100.00;63986.66;5051661;28;20376;-77
2023/05/29 01:42:55;;;;;;;;;;;10.70;99.90;;;-148.53;100.00;63986.66;5061509;28;20241;-77
2023/05/29 01:45:20;;;;;;;;;;;10.70;99.90;;;-148.53;100.00;63986.66;5050774;28;19959;-76
2023/05/29 01:47:46;;;;;;;;;;;10.60;99.90;;;-148.53;100.00;63986.66;5064050;28;19947;-77
2023/05/29 01:50:17;;;;;;;;;;;10.60;99.90;;;-148.53;100.00;63986.66;5091177;28;19968;-77
2023/05/29 01:52:43;;;;;;;;;;;10.60;99.90;;;-148.53;100.00;63986.66;5056097;28;19921;-78
2023/05/29 01:55:09;;;;;;;;;;;10.50;99.90;;;-148.53;100.00;63986.66;5051890;28;20331;-77
2023/05/29 01:57:36;;;;;;;;;;;10.50;99.90;;;-148.53;100.00;63986.66;5051957;28;19958;-77
2023/05/29 02:00:08;;;;;;;;;;;10.50;99.90;;;-148.53;100.00;63986.66;5057157;28;19970;-77
2023/05/29 02:02:40;;;;;;;;;;;10.40;99.90;;;-148.53;100.00;63986.66;5051740;28;19917;-77
2023/05/29 02:05:08;;;;;;;;;;;10.40;99.90;;;-148.53;100.00;63986.66;5051302;28;20400;-77
2023/05/29 02:07:36;;;;;;;;;;;10.30;99.90;;;-148.53;100.00;63986.66;5052294;28;19970;-77
2023/05/29 02:10:03;;;;;;;;;;;10.30;99.90;;;-148.53;100.00;63986.66;5055590;28;19966;-76
2023/05/29 02:12:29;;;;;;;;;;;10.20;99.90;;;-148.53;100.00;63986.66;5058697;28;19961;-77
2023/05/29 02:14:55;;;;;;;;;;;10.20;99.90;;;-148.53;100.00;63986.66;5054587;28;19912;-77
2023/05/29 02:17:21;;;;;;;;;;;10.20;99.90;;;-148.53;100.00;63986.66;5054407;28;19917;-77
2023/05/29 02:19:47;;;;;;;;;;;10.20;99.90;;;-148.53;100.00;63986.66;5087556;28;20356;-77
2023/05/29 02:22:13;;;;;;;;;;;10.20;99.90;;;-148.53;100.00;63986.66;5054394;28;19935;-77
2023/05/29 02:24:38;;;;;;;;;;;10.10;99.90;;;-148.53;100.00;63986.66;5055546;28;19955;-77
2023/05/29 02:27:05;;;;;;;;;;;10.10;99.90;;;-148.53;100.00;63986.66;5058695;28;19916;-77
2023/05/29 02:29:31;;;;;;;;;;;10.00;99.90;;;-148.53;100.00;63986.66;5054720;28;19951;-77
2023/05/29 02:31:57;;;;;;;;;;;10.00;99.90;;;-148.53;100.00;63986.66;5061781;28;19963;-76
2023/05/29 02:34:22;;;;;;;;;;;10.00;99.90;;;-148.53;100.00;63986.66;5053744;28;19916;-77
2023/05/29 02:36:49;;;;;;;;;;;9.90;99.90;;;-148.53;100.00;63986.66;5054659;28;19970;-76
2023/05/29 02:39:16;;;;;;;;;;;9.90;99.90;;;-148.53;100.00;63986.66;5054499;28;19917;-77
2023/05/29 02:41:42;;;;;;;;;;;9.90;99.90;;;-148.53;100.00;63986.66;5087304;28;19966;-77
2023/05/29 02:44:07;;;;;;;;;;;9.90;99.90;;;-148.53;100.00;63986.66;5058256;28;19951;-77
2023/05/29 02:46:33;;;;;;;;;;;9.90;99.90;;;-148.53;100.00;63986.66;5055045;28;20002;-77
2023/05/29 02:48:59;;;;;;;;;;;9.90;99.90;;;-148.53;100.00;63986.66;5055140;28;19982;-77
2023/05/29 02:51:24;;;;;;;;;;;9.80;99.90;;;-148.53;100.00;63986.66;5054530;28;19931;-77
2023/05/29 02:53:50;;;;;;;;;;;9.80;99.90;;;-148.53;100.00;63986.66;5054558;28;19924;-77
2023/05/29 02:56:16;;;;;;;;;;;9.80;99.90;;;-148.53;100.00;63986.66;5054938;28;19964;-77
2023/05/29 02:58:42;;;;;;;;;;;9.70;99.90;;;-148.53;100.00;63986.66;5053693;28;19924;-77
2023/05/29 03:01:08;;;;;;;;;;;9.70;99.90;;;-148.53;100.00;63986.66;5054310;28;20372;-77
2023/05/29 03:03:33;;;;;;;;;;;9.70;99.90;;;-148.53;100.00;63986.66;5056472;28;19924;-76
2023/05/29 03:06:00;;;;;;;;;;;9.70;99.90;;;-148.53;100.00;63986.66;5061142;28;19916;-77
2023/05/29 03:08:27;;;;;;;;;;;9.70;99.90;;;-148.53;100.00;63986.66;5054530;28;19916;-77
2023/05/29 03:10:52;;;;;;;;;;;9.60;99.90;;;-148.53;100.00;63986.66;5057692;28;19969;-78
2023/05/29 03:13:18;;;;;;;;;;;9.60;99.90;;;-148.53;100.00;63986.66;5054110;28;20011;-78
2023/05/29 03:15:56;;;;;;;;;;;9.60;99.90;;;-148.53;100.00;63986.66;5043264;28;20300;-76
2023/05/29 03:18:22;;;;;;;;;;;9.60;99.90;;;-148.53;100.00;63986.66;5053090;28;19927;-77
2023/05/29 03:20:48;;;;;;;;;;;9.60;99.90;;;-148.53;100.00;63986.66;5059257;28;20328;-77
2023/05/29 03:23:14;;;;;;;;;;;9.60;99.90;;;-148.53;100.00;63986.66;5059304;28;19921;-77
2023/05/29 03:25:40;;;;;;;;;;;9.60;99.90;;;-148.53;100.00;63986.66;5053134;28;19997;-77
2023/05/29 03:28:06;;;;;;;;;;;9.60;99.90;;;-148.53;100.00;63986.66;5053088;28;20003;-77
2023/05/29 03:30:32;;;;;;;;;;;9.60;99.90;;;-148.53;100.00;63986.66;5057284;28;20024;-77
2023/05/29 03:33:03;;;;;;;;;;;9.60;99.90;;;-148.53;100.00;63986.66;5064580;28;19922;-77
2023/05/29 03:35:39;;;;;;;;;;;9.60;99.90;;;-148.53;100.00;63986.66;5052529;28;19923;-77
2023/05/29 03:38:05;;;;;;;;;;;9.60;99.90;;;-148.53;100.00;63986.66;5052918;28;20351;-76
2023/05/29 03:40:31;;;;;;;;;;;9.60;99.90;;;-148.53;100.00;63986.66;5057678;28;20005;-76
2023/05/29 03:42:57;;;;;;;;;;;9.70;99.90;;;-148.53;100.00;63986.66;5059715;28;19917;-75
2023/05/29 03:45:22;;;;;;;;;;;9.60;99.90;;;-148.53;100.00;63986.66;5056313;28;19917;-76
2023/05/29 03:47:48;;;;;;;;;;;9.60;99.90;;;-148.53;100.00;63986.66;5052670;28;20007;-76
2023/05/29 03:50:15;;;;;;;;;;;9.60;99.90;;;-148.53;100.00;63986.66;5058888;28;19924;-76
2023/05/29 03:52:42;;;;;;;;;;;9.70;99.90;;;-148.53;100.00;63986.66;5089210;28;19916;-76
2023/05/29 03:55:12;;;;;;;;;;;9.80;99.90;;;-148.53;100.00;63986.66;5064860;28;19916;-76
2023/05/29 03:57:42;;;;;;;;;;;9.80;99.90;;;-148.53;100.00;63986.66;5058314;28;19916;-76
2023/05/29 04:00:12;;;;;;;;;;;9.90;99.90;;;-148.53;100.00;63986.66;5085515;28;19916;-76
2023/05/29 04:02:45;;;;;;;;;;;10.10;99.90;;;-148.53;100.00;63986.66;5057878;28;20003;-76
2023/05/29 04:05:12;;;;;;;;;;;10.20;99.90;;;-148.53;100.00;63986.66;5053460;28;20007;-76
2023/05/29 04:07:38;;;;;;;;;;;10.20;99.90;;;-148.53;100.00;63986.66;5053632;28;19917;-76
2023/05/29 04:10:06;;;;;;;;;;;10.30;99.90;;;-148.53;100.00;63986.66;5053497;28;20291;-76
2023/05/29 04:12:33;;;;;;;;;;;10.40;99.90;;;-148.53;100.00;63986.66;5052076;28;20057;-76
2023/05/29 04:14:59;;;;;;;;;;;10.40;99.90;;;-148.53;100.00;63986.66;5053140;28;19979;-76
2023/05/29 04:17:25;;;;;;;;;;;10.50;99.90;;;-148.53;100.00;63986.66;5085535;28;19916;-75
2023/05/29 04:19:50;;;;;;;;;;;10.50;99.90;;;-148.53;100.00;63986.66;5056052;28;20473;-76
2023/05/29 04:22:16;;;;;;;;;;;10.60;99.90;;;-148.53;100.00;63986.66;5054030;28;19970;-76
2023/05/29 04:24:42;;;;;;;;;;;10.70;99.90;;;-148.53;100.00;63986.66;5068731;28;21340;-76
2023/05/29 04:27:12;;;;;;;;;;;10.80;99.90;;;-148.53;100.00;63986.66;5071128;28;19959;-75
2023/05/29 04:29:40;;;;;;;;;;;10.80;99.90;;;-148.53;100.00;63986.66;5072464;28;19916;-76
2023/05/29 04:32:08;;;;;;;;;;;10.80;99.90;;;-148.53;100.00;63986.66;5067334;28;19961;-76
2023/05/29 04:34:34;;;;;;;;;;;10.90;99.90;;;-148.53;100.00;63986.66;5048981;28;19920;-76
2023/05/29 04:37:00;;;;;;;;;;;10.90;99.90;;;-148.53;100.00;63986.66;5052035;28;19952;-76
2023/05/29 04:39:29;;;;;;;;;;;11.00;99.90;;;-148.53;100.00;63986.66;5067940;28;19943;-76
2023/05/29 04:41:58;;;;;;;;;;;11.00;99.90;;;-148.53;100.00;63986.66;5070616;28;19962;-76
2023/05/29 04:44:26;;;;;;;;;;;11.00;99.90;;;-148.53;100.00;63986.66;5067891;28;19920;-77
2023/05/29 04:46:53;;;;;;;;;;;11.10;99.90;;;-148.53;100.00;63986.66;5065890;28;19917;-77
2023/05/29 04:49:20;;;;;;;;;;;11.10;99.90;;;-148.53;100.00;63986.66;5050569;28;19924;-77
2023/05/29 04:51:46;;;;;;;;;;;11.20;99.90;;;-148.53;100.00;63986.66;5067843;28;19916;-76
2023/05/29 04:54:12;;;;;;;;;;;11.20;99.90;;;-148.53;100.00;63986.66;5052008;28;19947;-76
2023/05/29 04:56:45;;;;;;;;;;;11.30;99.90;;;-148.53;100.00;63986.66;5066882;28;20441;-75
2023/05/29 04:59:13;;;;;;;;;;;11.40;99.90;;;-148.53;100.00;63986.66;5068151;28;19924;-77
2023/05/29 05:01:39;;;;;;;;;;;11.50;99.90;;;-148.53;100.00;63986.66;5062934;28;19924;-76
2023/05/29 05:04:04;;;;;;;;;;;11.50;99.90;;;-148.53;100.00;63986.66;5067538;28;19924;-77
2023/05/29 05:06:30;;;;;;;;;;;11.60;99.90;;;-148.53;100.00;63986.66;5068438;28;19923;-76
2023/05/29 05:08:57;;;;;;;;;;;11.60;99.90;;;-148.53;100.00;63986.66;5069235;28;19920;-76
2023/05/29 05:11:23;;;;;;;;;;;11.60;99.90;;;-148.53;100.00;63986.66;5070604;28;20022;-77
2023/05/29 05:13:49;;;;;;;;;;;11.60;99.90;;;-148.53;100.00;63986.66;5052873;28;19923;-76
2023/05/29 05:16:18;;;;;;;;;;;11.70;99.90;;;-148.53;100.00;63986.66;5066924;28;19916;-76
2023/05/29 05:18:43;;;;;;;;;;;11.80;99.90;;;-148.53;100.00;63986.66;5067458;28;19996;-76
2023/05/29 05:21:10;;;;;;;;;;;11.90;99.90;;;-148.53;100.00;63986.66;5070892;28;19927;-76
2023/05/29 05:23:36;;;;;;;;;;;11.90;99.90;;;-148.53;100.00;63986.66;5077974;28;19920;-76
2023/05/29 05:26:02;;;;;;;;;;;12.00;99.90;;;-148.53;100.00;63986.66;5052593;28;19946;-77
2023/05/29 05:28:29;;;;;;;;;;;12.20;99.90;;;-148.53;100.00;63986.66;5057626;28;19920;-77
2023/05/29 05:30:55;;;;;;;;;;;12.30;99.90;;;-148.53;100.00;63986.66;5059110;28;20019;-76
2023/05/29 05:33:20;;;;;;;;;;;12.20;99.90;;;-148.53;100.00;63986.66;5067012;28;19956;-76
2023/05/29 05:35:46;;;;;;;;;;;12.20;99.90;;;-148.53;100.00;63986.66;5043724;28;20422;-76
2023/05/29 05:38:12;;;;;;;;;;;12.30;99.90;;;-148.53;100.00;63986.66;5055976;28;19964;-77
2023/05/29 05:40:38;;;;;;;;;;;12.50;99.90;;;-148.53;100.00;63986.66;5058822;28;19916;-76
2023/05/29 05:43:12;;;;;;;;;;;12.50;99.90;;;-148.53;100.00;63986.66;5052571;28;20388;-76
2023/05/29 05:45:57;;;;;;;;;;;12.60;99.90;;;-148.53;100.00;63986.66;5057254;28;19923;-76
2023/05/29 05:48:22;;;;;;;;;;;12.50;99.90;;;-148.53;100.00;63986.66;5062960;28;19964;-76
2023/05/29 05:50:48;;;;;;;;;;;12.60;99.90;;;-148.53;100.00;63986.66;5059512;28;19917;-76
2023/05/29 05:53:14;;;;;;;;;;;12.70;99.90;;;-148.53;100.00;63986.66;5069873;28;19916;-77
2023/05/29 05:55:43;;;;;;;;;;;12.60;99.90;;;-148.53;100.00;63986.66;5064956;28;19941;-75
2023/05/29 05:58:21;;;;;;;;;;;12.50;99.90;;;-148.53;100.00;63986.66;5065292;28;20379;-76
2023/05/29 06:00:52;;;;;;;;;;;12.50;99.90;;;-148.53;100.00;63986.66;5061458;28;19999;-75
2023/05/29 06:03:18;;;;;;;;;;;12.40;99.90;;;-148.53;100.00;63986.66;5056169;28;19917;-76
2023/05/29 06:05:57;;;;;;;;;;;12.50;99.90;;;-148.53;100.00;63986.66;5062256;28;19916;-75
2023/05/29 06:08:23;;;;;;;;;;;12.60;99.90;;;-148.53;100.00;63986.66;5068964;28;20319;-76
2023/05/29 06:10:50;;;;;;;;;;;12.60;99.90;;;-148.53;100.00;63986.66;5063395;28;19920;-75
2023/05/29 06:13:16;;;;;;;;;;;12.80;99.90;;;-148.53;100.00;63986.66;5050808;28;20341;-75
2023/05/29 06:15:47;;;;;;;;;;;13.10;99.90;;;-148.53;100.00;63986.66;5057308;28;19928;-77
2023/05/29 06:18:13;;;;;;;;;;;13.30;99.90;;;-148.53;100.00;63986.66;5055284;28;20012;-76
2023/05/29 06:20:39;;;;;;;;;;;13.20;99.90;;;-148.53;100.00;63986.66;5071337;28;20015;-77
2023/05/29 06:23:06;;;;;;;;;;;13.20;99.90;;;-148.53;100.00;63986.66;5084584;28;20410;-77
2023/05/29 06:25:33;;;;;;;;;;;13.30;99.90;;;-148.53;100.00;63986.66;5060889;28;20035;-77
2023/05/29 06:28:01;;;;;;;;;;;13.30;99.90;;;-148.53;100.00;63986.66;5073884;28;19920;-76
2023/05/29 06:30:27;;;;;;;;;;;13.30;99.90;;;-148.53;100.00;63986.66;5063847;28;19928;-75
2023/05/29 06:32:53;;;;;;;;;;;13.30;99.90;;;-148.53;100.00;63986.66;5064985;28;19924;-76
2023/05/29 06:35:25;;;;;;;;;;;13.30;99.90;;;-148.53;100.00;63986.66;5050641;28;19912;-76
2023/05/29 06:37:50;;;;;;;;;;;13.30;99.90;;;-148.53;100.00;63986.66;5068473;28;19943;-76
2023/05/29 06:40:16;;;;;;;;;;;13.20;99.90;;;-148.53;100.00;63986.66;5067710;28;19917;-77
2023/05/29 06:42:45;;;;;;;;;;;13.40;99.90;;;-148.53;100.00;63986.66;5056380;28;20044;-76
2023/05/29 06:45:14;;;;;;;;;;;13.40;99.90;;;-148.53;100.00;63986.66;5060061;28;19927;-76
2023/05/29 06:47:40;;;;;;;;;;;13.60;99.90;;;-148.53;100.00;63986.66;5097033;28;19921;-75
2023/05/29 06:50:07;;;;;;;;;;;13.60;99.90;;;-148.53;100.00;63986.66;5065667;28;20378;-77
2023/05/29 06:52:33;;;;;;;;;;;13.50;99.90;;;-148.53;100.00;63986.66;5066490;28;19917;-76
2023/05/29 06:55:24;;;;;;;;;;;13.60;99.90;;;-148.53;100.00;63986.66;5068492;28;19916;-77
2023/05/29 06:57:50;;;;;;;;;;;14.00;99.90;;;-148.53;100.00;63986.66;5066815;28;19924;-77
2023/05/29 07:00:17;;;;;;;;;;;13.90;99.90;;;-148.53;100.00;63986.66;5070270;28;20332;-77
2023/05/29 07:02:51;;;;;;;;;;;13.70;99.90;;;-148.53;100.00;63986.66;5069356;28;19989;-78
2023/05/29 07:05:17;;;;;;;;;;;13.80;99.90;;;-148.53;100.00;63986.66;5063298;28;20327;-80
2023/05/29 07:07:43;;;;;;;;;;;13.90;99.90;;;-148.53;100.00;63986.66;5069331;28;20041;-77
2023/05/29 07:10:10;;;;;;;;;;;13.90;99.90;;;-148.53;100.00;63986.66;5066869;28;19927;-78
2023/05/29 07:12:36;;;;;;;;;;;14.00;99.90;;;-148.53;100.00;63986.66;5064095;28;20046;-78
2023/05/29 07:15:02;;;;;;;;;;;14.10;99.90;;;-148.53;100.00;63986.66;5070102;28;20007;-79
2023/05/29 07:17:28;;;;;;;;;;;14.40;99.90;;;-148.53;100.00;63986.66;5065784;28;20344;-79
2023/05/29 07:20:07;;;;;;;;;;;14.50;99.90;;;-148.53;100.00;63986.66;5067756;28;19916;-77
2023/05/29 07:22:34;;;;;;;;;;;14.40;99.90;;;-148.53;100.00;63986.66;5060224;28;19927;-79
2023/05/29 07:25:00;;;;;;;;;;;14.50;99.90;;;-148.53;100.00;63986.66;5064907;28;19912;-78
2023/05/29 07:27:26;;;;;;;;;;;14.70;99.90;;;-148.53;100.00;63986.66;5069134;28;19916;-78
2023/05/29 07:29:52;;;;;;;;;;;14.70;99.90;;;-148.53;100.00;63986.66;5067144;28;19996;-79
2023/05/29 07:32:18;;;;;;;;;;;15.00;99.90;;;-148.53;100.00;63986.66;5065466;28;20016;-79
2023/05/29 07:34:43;;;;;;;;;;;14.90;99.90;;;-148.53;100.00;63986.66;5058637;28;19964;-79
2023/05/29 07:37:11;;;;;;;;;;;14.80;99.90;;;-148.53;100.00;63986.66;5054125;28;19969;-79
2023/05/29 07:39:38;;;;;;;;;;;14.90;99.90;;;-148.53;100.00;63986.66;5059643;28;19916;-79
2023/05/29 07:42:14;;;;;;;;;;;14.80;99.90;;;-148.53;100.00;63986.66;5052532;28;20326;-79
2023/05/29 07:44:42;;;;;;;;;;;14.70;99.90;;;-148.53;100.00;63986.66;5060419;28;19916;-79
2023/05/29 07:47:11;;;;;;;;;;;14.80;99.90;;;-148.53;100.00;63986.66;5063103;28;19920;-79
2023/05/29 07:49:41;;;;;;;;;;;15.00;99.90;;;-148.53;100.00;63986.66;5058367;28;19927;-77
2023/05/29 07:52:07;;;;;;;;;;;15.10;99.90;;;-148.53;100.00;63986.66;5052611;28;19917;-81
2023/05/29 07:54:33;;;;;;;;;;;15.00;99.90;;;-148.53;100.00;63986.66;5086743;28;19979;-81
2023/05/29 07:57:02;;;;;;;;;;;15.10;99.90;;;-148.53;100.00;63986.66;5058353;28;19947;-82
2023/05/29 07:59:28;;;;;;;;;;;15.10;99.90;;;-148.53;100.00;63986.66;5056835;28;19927;-78
2023/05/29 08:02:00;;;;;;;;;;;15.10;99.90;;;-148.53;100.00;63986.66;5060841;28;20003;-79
2023/05/29 08:04:42;;;;;;;;;;;15.30;99.90;;;-148.53;100.00;63986.66;5053324;28;19956;-78
2023/05/29 08:07:08;;;;;;;;;;;15.40;99.90;;;-148.53;100.00;63986.66;5064764;28;19967;-77
2023/05/29 08:09:35;;;;;;;;;;;15.50;99.90;;;-148.53;100.00;63986.66;5053113;28;19917;-77
2023/05/29 08:12:02;;;;;;;;;;;15.80;99.90;;;-148.53;100.00;63986.66;5069274;28;19927;-77
2023/05/29 08:14:28;;;;;;;;;;;15.70;99.90;;;-148.53;100.00;63986.66;5066985;28;20284;-77
2023/05/29 08:16:55;;;;;;;;;;;15.70;99.90;;;-148.53;100.00;63986.66;5061576;28;19920;-78
2023/05/29 08:19:20;;;;;;;;;;;15.70;99.90;;;-148.53;100.00;63986.66;5058807;28;19956;-78
2023/05/29 08:21:46;;;;;;;;;;;15.90;99.90;;;-148.53;100.00;63986.66;5056871;28;19955;-77
2023/05/29 08:24:12;;;;;;;;;;;15.80;99.90;;;-148.53;100.00;63986.66;5058279;28;20021;-81
2023/05/29 08:26:37;;;;;;;;;;;15.80;99.90;;;-148.53;100.00;63986.66;5056482;28;19967;-80
2023/05/29 08:29:03;;;;;;;;;;;15.80;99.90;;;-148.53;100.00;63986.66;5053115;28;19982;-80
2023/05/29 08:31:30;;;;;;;;;;;16.30;99.90;;;-148.53;100.00;63986.66;5052458;28;19916;-80
2023/05/29 08:33:56;;;;;;;;;;;;;;;-148.53;100.00;63986.66;5052257;28;20380;-81
2023/05/29 08:36:21;;;;;;;;;;;16.80;99.90;;;-148.53;100.00;63986.66;5033979;28;20078;-80
2023/05/29 08:38:48;;;;;;;;;;;17.10;99.90;;;-148.53;100.00;63986.66;5054616;28;19972;-82
2023/05/29 08:42:04;;;;;;;;;;;17.10;99.90;;;-148.53;100.00;63986.66;5033424;28;19927;-81
2023/05/29 08:44:32;;;;;;;;;;;17.00;99.90;;;-148.53;100.00;63986.66;5049830;28;19939;-80
2023/05/29 08:47:01;;;;;;;;;;;16.70;99.90;;;-148.53;100.00;63986.66;5084329;28;20782;-79
2023/05/29 08:49:29;;;;;;;;;;;16.70;99.90;;;-148.53;100.00;63986.66;5054419;28;19916;-79
2023/05/29 08:52:06;;;;;;;;;;;16.50;99.90;;;-148.53;100.00;63986.66;5052198;28;19923;-79
2023/05/29 08:54:32;;;;;;;;;;;16.70;99.90;;;-148.53;100.00;63986.66;5052040;28;19916;-77
2023/05/29 08:57:01;;;;;;;;;;;16.80;99.90;;;-148.53;100.00;63986.66;5056393;28;19917;-77
2023/05/29 08:59:29;;;;;;;;;;;16.70;99.90;;;-148.53;100.00;63986.66;5056915;28;19921;-78
2023/05/29 09:01:55;;;;;;;;;;;16.90;99.90;;;-148.53;100.00;63986.66;5052217;28;20011;-77
2023/05/29 09:04:20;;;;;;;;;;;16.80;99.90;;;-148.53;100.00;63986.66;5058984;28;20044;-77
2023/05/29 09:06:46;;;;;;;;;;;16.90;99.90;;;-148.53;100.00;63986.66;5051859;28;20006;-78
2023/05/29 09:09:12;;;;;;;;;;;17.20;99.90;;;-148.53;100.00;63986.66;5052374;28;20006;-79
2023/05/29 09:11:38;;;;;;;;;;;17.20;99.90;;;-148.53;100.00;63986.66;5057233;28;20324;-78
2023/05/29 09:14:03;;;;;;;;;;;17.00;99.90;;;-148.53;100.00;63986.66;5051511;28;19920;-77
2023/05/29 09:16:29;;;;;;;;;;;16.90;99.90;;;-148.53;100.00;63986.66;5051517;28;19995;-77
2023/05/29 09:19:06;;;;;;;;;;;16.90;99.90;;;-148.53;100.00;63986.66;5050593;28;19917;-77
2023/05/29 09:21:33;;;;;;;;;;;17.20;99.90;;;-148.53;100.00;63986.66;5058172;28;20006;-77
2023/05/29 09:24:05;;;;;;;;;;;17.30;99.90;;;-148.53;100.00;63986.66;5054412;28;19916;-81
2023/05/29 09:26:31;;;;;;;;;;;17.30;99.80;;;-148.53;100.00;63986.66;5054592;28;19916;-78
2023/05/29 09:28:58;;;;;;;;;;;17.20;99.00;;;-148.53;100.00;63986.66;5055337;28;20014;-78
2023/05/29 09:31:23;;;;;;;;;;;17.20;99.50;;;-148.53;100.00;63986.66;5024347;28;992299;-80
2023/05/29 09:33:50;;;;;;;;;;;17.20;99.60;;;-148.53;100.00;63986.66;5055459;28;19924;-79
2023/05/29 09:36:25;;;;;;;;;;;17.30;99.50;;;-148.53;100.00;63986.66;5052001;28;19917;-80
2023/05/29 09:38:51;;;;;;;;;;;17.40;98.60;;;-148.53;100.00;63986.66;5052412;28;19967;-83
2023/05/29 09:41:23;;;;;;;;;;;;;;;-148.53;100.00;63986.66;5051157;28;20356;-81
2023/05/29 09:43:54;;;;;;;;;;;17.60;98.70;;;-148.53;100.00;63986.66;5052025;28;20012;-79
2023/05/29 09:46:20;;;;;;;;;;;18.10;96.30;;;-148.53;100.00;63986.66;5054588;28;19917;-80
2023/05/29 09:48:46;;;;;;;;;;;17.60;96.60;;;-148.53;100.00;63986.66;5058005;28;19916;-78
2023/05/29 09:51:22;;;;;;;;;;;17.70;96.90;;;-148.53;100.00;63986.66;5065147;28;19920;-82
2023/05/29 09:53:50;;;;;;;;;;;18.10;96.90;;;-148.53;100.00;63986.66;5051769;28;20108;-82
2023/05/29 09:56:17;;;;;;;;;;;18.30;95.30;;;-148.53;100.00;63986.66;5051344;28;19916;-78
2023/05/29 09:58:47;;;;;;;;;;;18.40;94.80;;;-148.53;100.00;63986.66;5051963;28;19934;-77
2023/05/29 10:01:15;;;;;;;;;;;;;;;-148.53;100.00;63986.66;5057724;28;19916;-77
2023/05/29 10:03:42;;;;;;;;;;;;;;;-148.53;100.00;63986.66;5053765;28;19985;-78
2023/05/29 10:06:11;;;;;;;;;;;;;;;-148.53;100.00;63986.66;5052357;28;19917;-77
2023/05/29 10:08:44;;;;;;;;;;;18.70;94.90;;;-148.53;100.00;63986.66;5051164;28;19917;-81
2023/05/29 10:11:15;;;;;;;;;;;;;;;-148.53;100.00;63986.66;5050978;28;19913;-78
2023/05/29 10:13:48;;;;;;;;;;;19.10;93.60;;;-148.53;100.00;63986.66;5051644;28;20376;-79
2023/05/29 10:16:15;;;;;;;;;;;;;;;-148.53;100.00;63986.66;5052013;28;19916;-79
2023/05/29 10:18:49;;;;;;;;;;;;;;;-148.53;100.00;63986.66;5050403;28;19924;-76
2023/05/29 10:21:15;;;;;;;;;;;;;;;-148.53;100.00;63986.66;5052423;28;19925;-78
2023/05/29 10:23:44;;;;;;;;;;;;;;;-148.53;100.00;63986.66;5051661;28;20000;-77
2023/05/29 10:26:14;;;;;;;;;;;;;;;-148.53;100.00;63986.66;5045799;28;20349;-78
2023/05/29 10:28:44;;;;;;;;;;;;;;;-148.53;100.00;63986.66;5053169;28;19939;-76
2023/05/29 10:31:19;;;;;;;;;;;;;;;-148.53;100.00;63986.66;5087141;28;19924;-77
2023/05/29 10:34:07;;;;;;;;;;;;;;;-148.53;100.00;63986.66;5054876;28;19971;-77
2023/05/29 10:36:40;;;;;;;;;;;;;;;-148.53;100.00;63986.66;5056678;28;19921;-77
2023/05/29 10:39:07;;;;;;;;;;;;;;;-148.53;100.00;63986.66;5058752;28;20427;-78
2023/05/29 10:41:33;;;;;;;;;;;;;;;-148.53;100.00;63986.66;5054700;28;19920;-77
2023/05/29 10:44:03;;;;;;;;;;;;;;;-148.53;100.00;63986.66;5054284;28;19917;-77
2023/05/29 10:46:48;;;;;;;;;;;19.30;93.90;;;-148.53;100.00;63986.66;5057590;28;19923;-76
2023/05/29 10:49:23;;;;;;;;;;;;;;;-148.53;100.00;63986.66;5053699;28;19920;-77
2023/05/29 10:51:51;;;;;;;;;;;;;;;-148.53;100.00;63986.66;5058536;28;20035;-77
2023/05/29 10:54:23;;;;;;;;;;;;;;;-148.53;100.00;63986.66;5054451;28;19921;-78
2023/05/29 10:57:12;;;;;;;;;;;;;;;-148.53;100.00;63986.66;5058532;28;20368;-77
2023/05/29 10:59:38;;;;;;;;;;;;;;;-148.53;100.00;63986.66;5058484;28;20276;-77
2023/05/29 11:02:07;;;;;;;;;;;;;;;-148.53;100.00;63986.66;5040837;28;19926;-78
2023/05/29 11:04:34;;;;;;;;;;;;;;;-148.53;100.00;63986.66;5054139;28;19967;-77
2023/05/29 11:07:00;;;;;;;;;;;;;;;-148.53;100.00;63986.66;5065363;28;20345;-78